x

East Bahamas - 335 Nm East Of San Salvador Is, Bahamas (41046) Wave Buoy

2:50pm - Sun 29th Mar 2015 All times are UTC.

  • Sig Wave height 5.9ft
  • Swell Direction
  • Peak Period 8s
  • Average Period 6s
  • Wind
    16mph, 18mph gusts
  • Sea Temp 79°f
  • Air Temp 79°f
  • Sea Pressure 1020.3mb

More Historic Weather Station data

Upgrade to MSW Pro to gain access to the past 30 days of data for over 8000 Wavebouys and Weather Stations around the globe.

Join Pro

Comparision Forecast

View Surf forecast
   
Sun 03/29 2:50pm 6ft 8s 6s 16 18 mph 1020.3mb 79f 79f
1:50pm 5.5ft 8s 6s 18 20 mph 1019.5mb 79f 79f
12:50pm 5ft 9s 6s 16 20 mph 1019.4mb 79f 78f
11:50am 5.5ft 8s 6s 16 18 mph 1019.1mb 79f 78f
10:50am 5ft 8s 6s 16 18 mph 1018.6mb 79f 78f
9:50am 5ft 8s 6s 16 18 mph 1018mb 79f 78f
8:50am 5.5ft 8s 6s 13 16 mph 1017.8mb 79f 78f
7:50am 5.5ft 8s 6s 13 16 mph 1017.5mb 79f 78f
6:50am 6ft 8s 6s 11 13 mph 1018.1mb 79f 78f
5:50am 6ft 8s 6s 11 13 mph 1018.6mb 79f 78f
4:50am 5.5ft 7s 6s 13 16 mph 1019.2mb 79f 78f
3:50am 6ft 8s 6s 13 16 mph 1019.6mb 79f 78f
2:50am 6ft 8s 6s 16 18 mph 1019.8mb 79f 78f
1:50am 6ft 8s 6s 16 18 mph 1019.8mb 79f 79f
12:50am 6.5ft 8s 6s 16 18 mph 1019.6mb 79f 79f
Sat 03/28 11:50pm 6.5ft 8s 6s 13 18 mph 1019.1mb 79f 79f
10:50pm 6ft 8s 6s 16 18 mph 1018.2mb 79f 79f
9:50pm 6.5ft 8s 6s 18 20 mph 1017.8mb 79f 79f
8:50pm 7ft 8s 6s 18 22 mph 1017.6mb 79f 79f
7:50pm 6.5ft 8s 6s 20 25 mph 1017.2mb 79f 79f
6:50pm 7ft 9s 6s 20 25 mph 1017.8mb 79f 79f
5:50pm 7ft 8s 6s 20 25 mph 1018.4mb 79f 79f
4:50pm 7ft 6s 6s 20 25 mph 1019.3mb 79f 79f
3:50pm 7ft 8s 6s 22 27 mph 1020mb 79f 79f
2:50pm 7ft 9s 5s 22 27 mph 1020mb 79f 79f
1:50pm 7ft 8s 6s 20 25 mph 1020.2mb 79f 79f
12:50pm 7ft 8s 6s 22 25 mph 1019.6mb 79f 79f
11:50am 7ft 8s 6s 22 25 mph 1019.2mb 79f 79f
10:50am 6ft 8s 6s 22 25 mph 1018.4mb 79f 78f
9:50am 6.5ft 8s 6s 22 27 mph 1017.8mb 79f 78f
8:50am 6.5ft 8s 6s 22 27 mph 1017.1mb 79f 78f
7:50am 6.5ft 8s 6s 22 27 mph 1016.4mb 79f 78f
6:50am 6ft 8s 6s 22 27 mph 1016.5mb 79f 78f
5:50am 7ft 8s 6s 20 25 mph 1017.3mb 79f 78f
4:50am 6.5ft 8s 6s 18 22 mph 1018mb 79f 78f
3:50am 6.5ft 8s 6s 20 22 mph 1018.5mb 79f 78f
2:50am 7ft 8s 6s 18 20 mph 1018.9mb 79f 78f
1:50am 6ft 8s 6s 16 18 mph 1019.1mb 79f 78f
12:50am 6.5ft 8s 6s 16 20 mph 1018.6mb 79f 78f
Fri 03/27 11:50pm 7ft 8s 6s 16 18 mph 1018.4mb 79f 78f
10:50pm 7ft 8s 6s 16 18 mph 1017.9mb 79f 78f
9:50pm 7ft 8s 6s 16 18 mph 1017.7mb 79f 78f
8:50pm 7ft 8s 6s 16 18 mph 1017.6mb 79f 79f
7:50pm 6.5ft 8s 6s 18 20 mph 1017.7mb 79f 79f
6:50pm 6.5ft 8s 6s 16 20 mph 1017.9mb 79f 79f
5:50pm 6.5ft 8s 6s 11 16 mph 1018.6mb 79f 78f
4:50pm 7ft 8s 6s 11 18 mph 1019.4mb 79f 77f
3:50pm 7ft 8s 6s 16 18 mph 1019.9mb 79f 78f
2:50pm 7ft 8s 6s 13 16 mph 1020.4mb 79f 78f
1:50pm 7ft 8s 6s 16 20 mph 1020.3mb 79f 78f
12:50pm 7.5ft 8s 6s 18 20 mph 1019.9mb 78f 78f
11:50am 8ft 8s 7s 16 20 mph 1019.3mb 78f 78f
10:50am 7.5ft 8s 6s 18 20 mph 1018.7mb 78f 77f
9:50am 8ft 8s 7s 16 20 mph 1018.2mb 78f 77f
8:50am 7ft 8s 6s 18 20 mph 1017.7mb 78f 77f
7:50am 7ft 8s 6s 18 20 mph 1017.7mb 78f 77f
6:50am 9ft 8s 7s 18 20 mph 1018.1mb 78f 77f
5:50am 7.5ft 9s 7s 18 22 mph 1018.4mb 78f 77f
4:50am 7.5ft 9s 7s 18 20 mph 1019.2mb 78f 77f
3:50am 8ft 8s 7s 16 20 mph 1019.5mb 79f 77f
2:50am 8.5ft 9s 7s 16 18 mph 1019.9mb 79f 76f
1:50am 8ft 10s 7s 16 20 mph 1020mb 79f 77f
12:50am 8.5ft 8s 7s 16 18 mph 1019.7mb 79f 77f
Thu 03/26 11:50pm 9.5ft 9s 7s 16 20 mph 1019.2mb 79f 77f
10:50pm 8.5ft 9s 7s 16 18 mph 1018.9mb 79f 77f
9:50pm 9ft 9s 8s 16 18 mph 1018.6mb 79f 78f
8:50pm 8ft 9s 7s 13 16 mph 1018.5mb 79f 78f
7:50pm 8ft 9s 7s 13 18 mph 1018.5mb 79f 77f
6:50pm 6ft 9s 7s 13 18 mph 1018.7mb 79f 77f
5:50pm 6ft 9s 7s 13 18 mph 1019.3mb 79f 77f
4:50pm 5ft 8s 6s 13 16 mph 1019.9mb 79f 77f
3:50pm 5ft 9s 6s 13 16 mph 1020.5mb 79f 77f
2:50pm 4.5ft 9s 6s 16 18 mph 1020.5mb 79f 77f
1:50pm 5ft 8s 6s 16 18 mph 1020.3mb 78f 77f
12:50pm 5ft 9s 6s 16 18 mph 1020.2mb 78f 77f
11:50am 5ft 8s 6s 16 20 mph 1019.5mb 78f 77f
10:50am 5ft 9s 6s 11 16 mph 1019.1mb 78f 76f
9:50am 5.5ft 9s 6s 9 11 mph 1018.8mb 78f 75f
8:50am 5ft 9s 6s 11 13 mph 1018.7mb 78f 76f
7:50am 5ft 8s 6s 13 16 mph 1018.7mb 78f 76f
6:50am 5ft 10s 6s 11 13 mph 1019.2mb 78f 75f
5:50am 5ft 10s 6s 13
mph
1019.9mb 78f 75f
4:50am 5ft 9s 6s 11
mph
1020.5mb 79f 75f
3:50am 5ft 9s 7s 13 16 mph 1021mb 79f 75f
2:50am 4.5ft 9s 7s 13 16 mph 1021.1mb 79f 75f
1:50am 4ft 10s 7s 13 16 mph 1021.3mb 79f 75f
12:50am 4ft 9s 8s 13 16 mph 1021mb 80f 75f
Wed 03/25 11:50pm 4.5ft 9s 8s 9 11 mph 1020.6mb 79f 75f
10:50pm 4.5ft 10s 8s 9 13 mph 1020.3mb 80f 75f
9:50pm 4.5ft 9s 8s 18 22 mph 1019.4mb 81f 75f
8:50pm 4ft 9s 8s 4 7 mph 1019.4mb 82f 79f
7:50pm 4.5ft 10s 8s 4
mph
1019.3mb 82f 78f
6:50pm 4.5ft 9s 8s 2 4 mph 1019.4mb 83f 78f
5:50pm 4ft 9s 8s 2 4 mph 1019.9mb 81f 78f
4:50pm 4ft 11s 8s 4 7 mph 1020.4mb 81f 78f